sensor_id;sensor_type;location;lat;lon;timestamp;pressure;altitude;pressure_sealevel;temperature;humidity
19783;BME280;10051;40.294;-3.754;2023-07-31T00:00:12;94318.72;;;30.49;28.43
19783;BME280;10051;40.294;-3.754;2023-07-31T00:02:38;94334.91;;;30.60;28.00
19783;BME280;10051;40.294;-3.754;2023-07-31T00:05:04;94316.44;;;30.44;28.62
19783;BME280;10051;40.294;-3.754;2023-07-31T00:07:30;94328.22;;;30.26;28.86
19783;BME280;10051;40.294;-3.754;2023-07-31T00:09:55;94322.78;;;30.26;28.97
19783;BME280;10051;40.294;-3.754;2023-07-31T00:12:24;94327.41;;;30.33;28.65
19783;BME280;10051;40.294;-3.754;2023-07-31T00:14:49;94326.25;;;30.31;28.77
19783;BME280;10051;40.294;-3.754;2023-07-31T00:17:16;94290.47;;;30.05;28.88
19783;BME280;10051;40.294;-3.754;2023-07-31T00:19:42;94321.03;;;30.09;29.42
19783;BME280;10051;40.294;-3.754;2023-07-31T00:22:08;94314.50;;;30.03;29.30
19783;BME280;10051;40.294;-3.754;2023-07-31T00:24:34;94289.91;;;29.79;29.46
19783;BME280;10051;40.294;-3.754;2023-07-31T00:26:59;94308.47;;;29.80;29.65
19783;BME280;10051;40.294;-3.754;2023-07-31T00:29:25;94301.66;;;29.61;29.19
19783;BME280;10051;40.294;-3.754;2023-07-31T00:31:53;94297.81;;;29.55;28.89
19783;BME280;10051;40.294;-3.754;2023-07-31T00:34:18;94283.16;;;29.49;29.01
19783;BME280;10051;40.294;-3.754;2023-07-31T00:36:44;94276.28;;;29.37;28.81
19783;BME280;10051;40.294;-3.754;2023-07-31T00:39:09;94317.91;;;29.61;28.75
19783;BME280;10051;40.294;-3.754;2023-07-31T00:41:35;94279.03;;;29.26;28.79
19783;BME280;10051;40.294;-3.754;2023-07-31T00:44:00;94280.13;;;29.40;28.73
19783;BME280;10051;40.294;-3.754;2023-07-31T00:46:26;94293.53;;;29.61;28.72
19783;BME280;10051;40.294;-3.754;2023-07-31T00:48:52;94289.22;;;29.67;28.36
19783;BME280;10051;40.294;-3.754;2023-07-31T00:51:17;94258.03;;;29.48;28.73
19783;BME280;10051;40.294;-3.754;2023-07-31T00:53:43;94307.56;;;29.94;28.63
19783;BME280;10051;40.294;-3.754;2023-07-31T00:56:11;94205.91;;;29.33;28.45
19783;BME280;10051;40.294;-3.754;2023-07-31T00:58:36;94328.81;;;30.07;28.54
19783;BME280;10051;40.294;-3.754;2023-07-31T01:01:02;94261.34;;;29.67;28.33
19783;BME280;10051;40.294;-3.754;2023-07-31T01:03:27;94308.25;;;30.09;28.31
19783;BME280;10051;40.294;-3.754;2023-07-31T01:06:15;94324.50;;;30.13;28.56
19783;BME280;10051;40.294;-3.754;2023-07-31T01:09:08;94327.59;;;30.11;28.68
19783;BME280;10051;40.294;-3.754;2023-07-31T01:11:41;94327.09;;;29.75;29.19
19783;BME280;10051;40.294;-3.754;2023-07-31T01:14:08;94322.16;;;29.62;29.42
19783;BME280;10051;40.294;-3.754;2023-07-31T01:16:34;94319.16;;;29.46;29.84
19783;BME280;10051;40.294;-3.754;2023-07-31T01:18:59;94320.03;;;29.28;30.32
19783;BME280;10051;40.294;-3.754;2023-07-31T01:27:20;94318.53;;;29.13;30.44
19783;BME280;10051;40.294;-3.754;2023-07-31T01:29:51;94292.31;;;29.02;30.68
19783;BME280;10051;40.294;-3.754;2023-07-31T01:32:19;94213.69;;;28.49;32.15
19783;BME280;10051;40.294;-3.754;2023-07-31T01:34:47;94318.09;;;29.21;32.89
19783;BME280;10051;40.294;-3.754;2023-07-31T01:37:14;94288.16;;;28.83;33.90
19783;BME280;10051;40.294;-3.754;2023-07-31T01:39:39;94258.81;;;28.67;34.51
19783;BME280;10051;40.294;-3.754;2023-07-31T01:42:05;94252.69;;;28.48;35.28
19783;BME280;10051;40.294;-3.754;2023-07-31T01:44:30;94279.28;;;28.72;35.55
19783;BME280;10051;40.294;-3.754;2023-07-31T01:46:57;94265.03;;;28.60;35.74
19783;BME280;10051;40.294;-3.754;2023-07-31T01:49:25;94308.94;;;29.01;36.12
19783;BME280;10051;40.294;-3.754;2023-07-31T01:51:51;94242.72;;;28.38;36.11
19783;BME280;10051;40.294;-3.754;2023-07-31T01:54:16;94311.28;;;28.99;35.92
19783;BME280;10051;40.294;-3.754;2023-07-31T01:56:42;94223.38;;;28.40;36.26
19783;BME280;10051;40.294;-3.754;2023-07-31T01:59:07;94239.19;;;28.52;36.25
19783;BME280;10051;40.294;-3.754;2023-07-31T02:01:33;94265.41;;;28.59;36.90
19783;BME280;10051;40.294;-3.754;2023-07-31T02:03:59;94251.19;;;28.44;37.12
19783;BME280;10051;40.294;-3.754;2023-07-31T02:06:24;94242.72;;;28.27;37.66
19783;BME280;10051;40.294;-3.754;2023-07-31T02:08:50;94307.53;;;28.63;38.09
19783;BME280;10051;40.294;-3.754;2023-07-31T02:11:15;94290.53;;;28.56;37.96
19783;BME280;10051;40.294;-3.754;2023-07-31T02:13:41;94283.25;;;28.45;38.10
19783;BME280;10051;40.294;-3.754;2023-07-31T02:16:07;94303.72;;;28.43;38.42
19783;BME280;10051;40.294;-3.754;2023-07-31T02:18:32;94245.44;;;28.09;38.27
19783;BME280;10051;40.294;-3.754;2023-07-31T02:20:58;94279.44;;;28.25;38.62
19783;BME280;10051;40.294;-3.754;2023-07-31T02:23:23;94310.28;;;28.42;38.85
19783;BME280;10051;40.294;-3.754;2023-07-31T02:25:49;94287.56;;;28.14;39.02
19783;BME280;10051;40.294;-3.754;2023-07-31T02:28:14;94314.16;;;28.37;39.25
19783;BME280;10051;40.294;-3.754;2023-07-31T02:30:44;94306.84;;;28.12;39.53
19783;BME280;10051;40.294;-3.754;2023-07-31T02:33:10;94269.06;;;27.80;40.05
19783;BME280;10051;40.294;-3.754;2023-07-31T02:35:36;94315.34;;;28.03;40.10
19783;BME280;10051;40.294;-3.754;2023-07-31T02:38:01;94264.03;;;27.64;39.89
19783;BME280;10051;40.294;-3.754;2023-07-31T02:40:27;94309.16;;;28.07;39.72
19783;BME280;10051;40.294;-3.754;2023-07-31T02:42:53;94289.47;;;27.88;39.72
19783;BME280;10051;40.294;-3.754;2023-07-31T02:45:18;94288.34;;;28.00;39.71
19783;BME280;10051;40.294;-3.754;2023-07-31T02:47:44;94278.28;;;27.93;40.05
19783;BME280;10051;40.294;-3.754;2023-07-31T02:50:10;94282.53;;;27.87;39.90
19783;BME280;10051;40.294;-3.754;2023-07-31T02:52:35;94306.09;;;27.94;40.47
19783;BME280;10051;40.294;-3.754;2023-07-31T02:55:01;94291.38;;;28.09;39.76
19783;BME280;10051;40.294;-3.754;2023-07-31T02:57:27;94286.41;;;28.22;39.33
19783;BME280;10051;40.294;-3.754;2023-07-31T02:59:52;94297.56;;;28.35;39.29
19783;BME280;10051;40.294;-3.754;2023-07-31T03:02:18;94289.06;;;28.33;38.90
19783;BME280;10051;40.294;-3.754;2023-07-31T03:04:44;94256.66;;;28.04;39.13
19783;BME280;10051;40.294;-3.754;2023-07-31T03:07:09;94246.66;;;27.65;40.07
19783;BME280;10051;40.294;-3.754;2023-07-31T03:09:35;94256.28;;;27.84;39.69
19783;BME280;10051;40.294;-3.754;2023-07-31T03:12:00;94268.25;;;27.65;40.28
19783;BME280;10051;40.294;-3.754;2023-07-31T03:14:26;94298.38;;;27.74;40.92
19783;BME280;10051;40.294;-3.754;2023-07-31T03:16:52;94274.06;;;27.52;40.79
19783;BME280;10051;40.294;-3.754;2023-07-31T03:19:17;94286.41;;;27.53;40.88
19783;BME280;10051;40.294;-3.754;2023-07-31T03:21:43;94302.22;;;27.66;40.88
19783;BME280;10051;40.294;-3.754;2023-07-31T03:24:09;94288.34;;;27.56;41.41
19783;BME280;10051;40.294;-3.754;2023-07-31T03:26:34;94302.22;;;27.58;41.50
19783;BME280;10051;40.294;-3.754;2023-07-31T03:29:01;94245.88;;;27.28;41.01
19783;BME280;10051;40.294;-3.754;2023-07-31T03:31:27;94313.41;;;27.57;41.67
19783;BME280;10051;40.294;-3.754;2023-07-31T03:33:52;94268.59;;;27.23;41.70
19783;BME280;10051;40.294;-3.754;2023-07-31T03:36:18;94312.22;;;27.51;42.13
19783;BME280;10051;40.294;-3.754;2023-07-31T03:38:43;94307.53;;;27.29;42.49
19783;BME280;10051;40.294;-3.754;2023-07-31T03:41:09;94297.88;;;27.17;42.24
19783;BME280;10051;40.294;-3.754;2023-07-31T03:43:35;94286.66;;;26.97;43.05
19783;BME280;10051;40.294;-3.754;2023-07-31T03:46:01;94321.41;;;27.21;42.85
19783;BME280;10051;40.294;-3.754;2023-07-31T03:48:28;94258.50;;;26.88;42.63
19783;BME280;10051;40.294;-3.754;2023-07-31T03:50:54;94288.19;;;26.95;42.83
19783;BME280;10051;40.294;-3.754;2023-07-31T03:53:19;94323.66;;;27.04;43.28
19783;BME280;10051;40.294;-3.754;2023-07-31T03:55:45;94300.78;;;26.69;43.71
19783;BME280;10051;40.294;-3.754;2023-07-31T03:58:10;94242.44;;;26.24;44.00
19783;BME280;10051;40.294;-3.754;2023-07-31T04:00:36;94320.84;;;26.75;43.57
19783;BME280;10051;40.294;-3.754;2023-07-31T04:03:01;94323.53;;;26.75;43.89
19783;BME280;10051;40.294;-3.754;2023-07-31T04:05:29;94326.25;;;26.79;43.79
19783;BME280;10051;40.294;-3.754;2023-07-31T04:07:55;94317.34;;;26.71;44.07
19783;BME280;10051;40.294;-3.754;2023-07-31T04:10:20;94270.97;;;26.36;44.10
19783;BME280;10051;40.294;-3.754;2023-07-31T04:12:46;94239.63;;;26.06;44.31
19783;BME280;10051;40.294;-3.754;2023-07-31T04:15:12;94312.72;;;26.64;44.51
19783;BME280;10051;40.294;-3.754;2023-07-31T04:17:37;94301.69;;;26.98;43.57
19783;BME280;10051;40.294;-3.754;2023-07-31T04:20:03;94250.03;;;26.89;42.88
19783;BME280;10051;40.294;-3.754;2023-07-31T04:22:29;94283.63;;;27.13;42.65
19783;BME280;10051;40.294;-3.754;2023-07-31T04:24:54;94282.84;;;27.20;42.79
19783;BME280;10051;40.294;-3.754;2023-07-31T04:27:20;94315.22;;;27.20;42.71
19783;BME280;10051;40.294;-3.754;2023-07-31T04:29:45;94305.22;;;27.24;42.53
19783;BME280;10051;40.294;-3.754;2023-07-31T04:32:12;94268.59;;;27.09;42.66
19783;BME280;10051;40.294;-3.754;2023-07-31T04:34:38;94316.81;;;27.46;42.44
19783;BME280;10051;40.294;-3.754;2023-07-31T04:37:04;94310.66;;;27.35;42.80
19783;BME280;10051;40.294;-3.754;2023-07-31T04:39:29;94273.19;;;27.05;42.44
19783;BME280;10051;40.294;-3.754;2023-07-31T04:41:55;94259.59;;;26.68;43.66
19783;BME280;10051;40.294;-3.754;2023-07-31T04:44:20;94278.81;;;26.67;43.73
19783;BME280;10051;40.294;-3.754;2023-07-31T04:46:48;94268.06;;;26.78;43.31
19783;BME280;10051;40.294;-3.754;2023-07-31T04:49:14;94250.66;;;26.57;43.27
19783;BME280;10051;40.294;-3.754;2023-07-31T04:51:39;94312.94;;;27.15;43.22
19783;BME280;10051;40.294;-3.754;2023-07-31T04:54:05;94275.84;;;26.90;43.38
19783;BME280;10051;40.294;-3.754;2023-07-31T04:56:30;94298.22;;;26.94;43.10
19783;BME280;10051;40.294;-3.754;2023-07-31T04:58:56;94322.91;;;27.07;43.58
19783;BME280;10051;40.294;-3.754;2023-07-31T05:01:21;94302.75;;;26.79;43.93
19783;BME280;10051;40.294;-3.754;2023-07-31T05:03:47;94264.19;;;26.71;43.43
19783;BME280;10051;40.294;-3.754;2023-07-31T05:06:12;94323.63;;;26.86;44.14
19783;BME280;10051;40.294;-3.754;2023-07-31T05:08:38;94285.69;;;26.53;44.32
19783;BME280;10051;40.294;-3.754;2023-07-31T05:11:04;94244.72;;;26.19;44.37
19783;BME280;10051;40.294;-3.754;2023-07-31T05:13:29;94335.19;;;26.90;44.26
19783;BME280;10051;40.294;-3.754;2023-07-31T05:15:55;94279.94;;;26.55;43.96
19783;BME280;10051;40.294;-3.754;2023-07-31T05:18:20;94330.59;;;26.94;44.07
19783;BME280;10051;40.294;-3.754;2023-07-31T05:20:46;94289.63;;;26.70;44.22
19783;BME280;10051;40.294;-3.754;2023-07-31T05:23:11;94281.94;;;26.80;43.89
19783;BME280;10051;40.294;-3.754;2023-07-31T05:25:37;94312.91;;;27.11;43.59
19783;BME280;10051;40.294;-3.754;2023-07-31T05:28:03;94332.22;;;27.21;43.65
19783;BME280;10051;40.294;-3.754;2023-07-31T05:30:30;94329.50;;;27.17;43.62
19783;BME280;10051;40.294;-3.754;2023-07-31T05:32:56;94304.03;;;27.04;43.50
19783;BME280;10051;40.294;-3.754;2023-07-31T05:35:22;94329.16;;;27.37;43.13
19783;BME280;10051;40.294;-3.754;2023-07-31T05:37:48;94285.13;;;26.93;43.42
19783;BME280;10051;40.294;-3.754;2023-07-31T05:40:14;94319.81;;;27.05;43.66
19783;BME280;10051;40.294;-3.754;2023-07-31T05:42:39;94294.72;;;26.86;43.61
19783;BME280;10051;40.294;-3.754;2023-07-31T05:45:06;94321.41;;;27.10;43.70
19783;BME280;10051;40.294;-3.754;2023-07-31T05:47:32;94275.06;;;26.82;43.57
19783;BME280;10051;40.294;-3.754;2023-07-31T05:49:58;94316.81;;;27.28;43.39
19783;BME280;10051;40.294;-3.754;2023-07-31T05:52:24;94241.28;;;27.54;41.76
19783;BME280;10051;40.294;-3.754;2023-07-31T05:54:49;94337.47;;;30.33;37.18
19783;BME280;10051;40.294;-3.754;2023-07-31T05:57:15;94305.88;;;32.01;33.39
19783;BME280;10051;40.294;-3.754;2023-07-31T05:59:41;94329.47;;;32.08;33.78
19783;BME280;10051;40.294;-3.754;2023-07-31T06:02:07;94344.78;;;30.39;36.24
19783;BME280;10051;40.294;-3.754;2023-07-31T06:04:33;94289.13;;;29.22;38.04
19783;BME280;10051;40.294;-3.754;2023-07-31T06:07:00;94254.22;;;28.57;38.67
19783;BME280;10051;40.294;-3.754;2023-07-31T06:09:26;94297.53;;;28.46;40.07
19783;BME280;10051;40.294;-3.754;2023-07-31T06:11:51;94328.06;;;28.10;41.35
19783;BME280;10051;40.294;-3.754;2023-07-31T06:14:17;94333.84;;;27.87;41.49
19783;BME280;10051;40.294;-3.754;2023-07-31T06:16:44;94343.53;;;28.13;41.46
19783;BME280;10051;40.294;-3.754;2023-07-31T06:19:10;94325.78;;;27.90;41.24
19783;BME280;10051;40.294;-3.754;2023-07-31T06:21:38;94305.31;;;27.82;41.80
19783;BME280;10051;40.294;-3.754;2023-07-31T06:24:05;94271.75;;;27.54;41.77
19783;BME280;10051;40.294;-3.754;2023-07-31T06:26:31;94331.56;;;27.78;41.88
19783;BME280;10051;40.294;-3.754;2023-07-31T06:28:57;94306.41;;;27.38;42.45
19783;BME280;10051;40.294;-3.754;2023-07-31T06:31:22;94208.75;;;26.70;42.74
19783;BME280;10051;40.294;-3.754;2023-07-31T06:33:52;94351.63;;;28.13;41.92
19783;BME280;10051;40.294;-3.754;2023-07-31T06:36:18;94311.09;;;27.77;41.86
19783;BME280;10051;40.294;-3.754;2023-07-31T06:38:43;94323.06;;;27.98;41.47
19783;BME280;10051;40.294;-3.754;2023-07-31T06:41:09;94326.91;;;27.86;41.71
19783;BME280;10051;40.294;-3.754;2023-07-31T06:43:36;94355.47;;;28.01;42.29
19783;BME280;10051;40.294;-3.754;2023-07-31T06:46:08;94343.50;;;27.70;42.27
19783;BME280;10051;40.294;-3.754;2023-07-31T06:48:35;94279.38;;;27.16;42.73
19783;BME280;10051;40.294;-3.754;2023-07-31T06:51:02;94362.81;;;27.68;43.26
19783;BME280;10051;40.294;-3.754;2023-07-31T06:53:28;94275.91;;;27.19;42.98
19783;BME280;10051;40.294;-3.754;2023-07-31T06:55:53;94329.97;;;27.52;42.83
19783;BME280;10051;40.294;-3.754;2023-07-31T06:58:22;94363.19;;;27.85;42.65
19783;BME280;10051;40.294;-3.754;2023-07-31T07:00:48;94280.53;;;27.22;42.52
19783;BME280;10051;40.294;-3.754;2023-07-31T07:03:18;94361.66;;;27.80;42.47
19783;BME280;10051;40.294;-3.754;2023-07-31T07:05:44;94291.78;;;27.46;42.63
19783;BME280;10051;40.294;-3.754;2023-07-31T07:08:09;94321.91;;;27.81;41.64
19783;BME280;10051;40.294;-3.754;2023-07-31T07:10:35;94332.72;;;27.77;42.07
19783;BME280;10051;40.294;-3.754;2023-07-31T07:13:01;94322.28;;;27.72;42.13
19783;BME280;10051;40.294;-3.754;2023-07-31T07:15:26;94335.81;;;27.94;42.10
19783;BME280;10051;40.294;-3.754;2023-07-31T07:17:52;94325.38;;;27.85;41.79
19783;BME280;10051;40.294;-3.754;2023-07-31T07:20:17;94370.16;;;28.33;41.53
19783;BME280;10051;40.294;-3.754;2023-07-31T07:22:45;94251.66;;;27.41;41.55
19783;BME280;10051;40.294;-3.754;2023-07-31T07:25:10;94329.25;;;28.02;41.54
19783;BME280;10051;40.294;-3.754;2023-07-31T07:27:36;94348.94;;;28.17;41.70
19783;BME280;10051;40.294;-3.754;2023-07-31T07:30:02;94275.22;;;27.77;41.74
19783;BME280;10051;40.294;-3.754;2023-07-31T07:32:27;94360.88;;;28.52;40.77
19783;BME280;10051;40.294;-3.754;2023-07-31T07:34:53;94389.41;;;28.71;40.39
19783;BME280;10051;40.294;-3.754;2023-07-31T07:37:18;94342.34;;;28.47;39.84
19783;BME280;10051;40.294;-3.754;2023-07-31T07:39:44;94371.66;;;28.63;40.08
19783;BME280;10051;40.294;-3.754;2023-07-31T07:42:10;94384.78;;;28.75;39.98
19783;BME280;10051;40.294;-3.754;2023-07-31T07:44:35;94345.44;;;28.38;39.90
19783;BME280;10051;40.294;-3.754;2023-07-31T07:47:01;94335.00;;;28.29;40.21
19783;BME280;10051;40.294;-3.754;2023-07-31T07:49:26;94359.34;;;28.33;40.83
19783;BME280;10051;40.294;-3.754;2023-07-31T07:51:52;94404.09;;;28.70;40.38
19783;BME280;10051;40.294;-3.754;2023-07-31T07:54:17;94367.06;;;28.45;40.50
19783;BME280;10051;40.294;-3.754;2023-07-31T07:56:44;94272.13;;;28.00;39.75
19783;BME280;10051;40.294;-3.754;2023-07-31T07:59:10;94362.75;;;28.66;39.52
19783;BME280;10051;40.294;-3.754;2023-07-31T08:01:35;94390.56;;;28.92;39.84
19783;BME280;10051;40.294;-3.754;2023-07-31T08:04:01;94343.84;;;28.70;40.12
19783;BME280;10051;40.294;-3.754;2023-07-31T08:06:27;94393.97;;;29.11;40.04
19783;BME280;10051;40.294;-3.754;2023-07-31T08:08:55;94331.81;;;28.89;39.37
19783;BME280;10051;40.294;-3.754;2023-07-31T08:11:20;94354.09;;;29.22;38.69
19783;BME280;10051;40.294;-3.754;2023-07-31T08:13:49;94359.47;;;29.26;38.61
19783;BME280;10051;40.294;-3.754;2023-07-31T08:16:15;94374.44;;;29.52;38.14
19783;BME280;10051;40.294;-3.754;2023-07-31T08:18:41;94315.06;;;29.16;38.72
19783;BME280;10051;40.294;-3.754;2023-07-31T08:21:08;94301.59;;;29.01;39.37
19783;BME280;10051;40.294;-3.754;2023-07-31T08:23:34;94259.13;;;28.87;38.94
19783;BME280;10051;40.294;-3.754;2023-07-31T08:25:59;94264.16;;;28.89;38.46
19783;BME280;10051;40.294;-3.754;2023-07-31T08:28:25;94323.84;;;29.34;38.09
19783;BME280;10051;40.294;-3.754;2023-07-31T08:30:50;94297.91;;;29.41;38.16
19783;BME280;10051;40.294;-3.754;2023-07-31T08:33:16;94375.19;;;30.16;37.93
19783;BME280;10051;40.294;-3.754;2023-07-31T08:35:41;94367.81;;;30.20;37.86
19783;BME280;10051;40.294;-3.754;2023-07-31T08:38:07;94289.22;;;29.67;37.09
19783;BME280;10051;40.294;-3.754;2023-07-31T08:40:36;94345.38;;;30.16;37.44
19783;BME280;10051;40.294;-3.754;2023-07-31T08:43:03;94323.00;;;30.05;37.28
19783;BME280;10051;40.294;-3.754;2023-07-31T08:45:29;94381.69;;;30.26;36.75
19783;BME280;10051;40.294;-3.754;2023-07-31T08:47:55;94287.63;;;29.70;36.92
19783;BME280;10051;40.294;-3.754;2023-07-31T08:50:22;94332.34;;;30.00;37.02
19783;BME280;10051;40.294;-3.754;2023-07-31T08:52:50;94377.59;;;30.52;36.11
19783;BME280;10051;40.294;-3.754;2023-07-31T08:55:17;94365.09;;;30.66;35.75
19783;BME280;10051;40.294;-3.754;2023-07-31T08:57:43;94355.66;;;30.74;35.90
19783;BME280;10051;40.294;-3.754;2023-07-31T09:00:10;94332.66;;;30.48;36.94
19783;BME280;10051;40.294;-3.754;2023-07-31T09:05:23;94271.06;;;30.10;36.12
19783;BME280;10051;40.294;-3.754;2023-07-31T09:07:50;94272.31;;;30.02;36.68
19783;BME280;10051;40.294;-3.754;2023-07-31T09:10:18;94343.06;;;30.56;36.44
19783;BME280;10051;40.294;-3.754;2023-07-31T09:12:45;94337.13;;;30.69;35.68
19783;BME280;10051;40.294;-3.754;2023-07-31T09:15:14;94346.84;;;31.01;35.38
19783;BME280;10051;40.294;-3.754;2023-07-31T09:17:40;94302.41;;;30.88;34.99
19783;BME280;10051;40.294;-3.754;2023-07-31T09:20:18;94380.50;;;31.42;35.45
19783;BME280;10051;40.294;-3.754;2023-07-31T09:22:45;94267.03;;;30.64;35.46
19783;BME280;10051;40.294;-3.754;2023-07-31T09:25:25;94312.47;;;31.22;34.08
19783;BME280;10051;40.294;-3.754;2023-07-31T09:27:54;94201.06;;;30.70;33.84
19783;BME280;10051;40.294;-3.754;2023-07-31T09:30:21;94279.53;;;31.47;34.05
19783;BME280;10051;40.294;-3.754;2023-07-31T09:32:47;94292.00;;;31.44;33.52
19783;BME280;10051;40.294;-3.754;2023-07-31T09:35:21;94365.81;;;31.94;34.01
19783;BME280;10051;40.294;-3.754;2023-07-31T09:37:49;94279.94;;;31.45;33.77
19783;BME280;10051;40.294;-3.754;2023-07-31T09:40:30;94340.22;;;31.92;34.19
19783;BME280;10051;40.294;-3.754;2023-07-31T09:42:57;94290.38;;;31.74;33.14
19783;BME280;10051;40.294;-3.754;2023-07-31T09:45:24;94282.94;;;31.79;33.52
19783;BME280;10051;40.294;-3.754;2023-07-31T09:47:50;94291.75;;;31.59;33.10
19783;BME280;10051;40.294;-3.754;2023-07-31T09:50:16;94267.94;;;31.43;32.52
19783;BME280;10051;40.294;-3.754;2023-07-31T09:52:42;94282.56;;;31.53;32.89
19783;BME280;10051;40.294;-3.754;2023-07-31T09:55:10;94329.03;;;32.10;33.86
19783;BME280;10051;40.294;-3.754;2023-07-31T09:57:41;94354.81;;;32.25;32.87
19783;BME280;10051;40.294;-3.754;2023-07-31T10:00:09;94269.84;;;31.73;32.38
19783;BME280;10051;40.294;-3.754;2023-07-31T10:02:35;94302.94;;;31.92;31.98
19783;BME280;10051;40.294;-3.754;2023-07-31T10:05:03;94275.09;;;31.84;32.40
19783;BME280;10051;40.294;-3.754;2023-07-31T10:07:30;94342.25;;;32.55;31.25
19783;BME280;10051;40.294;-3.754;2023-07-31T10:10:00;94280.59;;;32.28;31.00
19783;BME280;10051;40.294;-3.754;2023-07-31T10:12:27;94339.22;;;32.93;30.46
19783;BME280;10051;40.294;-3.754;2023-07-31T10:14:56;94262.03;;;32.43;30.79
19783;BME280;10051;40.294;-3.754;2023-07-31T10:17:22;94267.91;;;32.42;30.50
19783;BME280;10051;40.294;-3.754;2023-07-31T10:19:55;94340.00;;;33.14;30.86
19783;BME280;10051;40.294;-3.754;2023-07-31T10:22:21;94316.31;;;33.11;30.16
19783;BME280;10051;40.294;-3.754;2023-07-31T10:24:48;94278.00;;;32.82;30.25
19783;BME280;10051;40.294;-3.754;2023-07-31T10:27:14;94293.84;;;33.07;30.10
19783;BME280;10051;40.294;-3.754;2023-07-31T10:29:41;94248.78;;;32.66;30.82
19783;BME280;10051;40.294;-3.754;2023-07-31T10:32:10;94256.72;;;32.76;30.70
19783;BME280;10051;40.294;-3.754;2023-07-31T10:34:39;94337.22;;;33.34;30.65
19783;BME280;10051;40.294;-3.754;2023-07-31T10:37:39;94325.38;;;33.25;30.93
19783;BME280;10051;40.294;-3.754;2023-07-31T10:40:16;94326.63;;;33.40;31.48
19783;BME280;10051;40.294;-3.754;2023-07-31T10:42:50;94320.84;;;33.55;30.88
19783;BME280;10051;40.294;-3.754;2023-07-31T10:45:34;94307.66;;;33.53;30.55
19783;BME280;10051;40.294;-3.754;2023-07-31T10:48:05;94326.13;;;33.78;30.68
19783;BME280;10051;40.294;-3.754;2023-07-31T10:50:33;94253.72;;;33.28;30.31
19783;BME280;10051;40.294;-3.754;2023-07-31T10:53:02;94306.31;;;33.78;29.74
19783;BME280;10051;40.294;-3.754;2023-07-31T10:58:11;94300.84;;;33.78;29.69
19783;BME280;10051;40.294;-3.754;2023-07-31T11:00:42;94255.19;;;33.65;29.11
19783;BME280;10051;40.294;-3.754;2023-07-31T11:10:37;94315.25;;;34.58;26.74
19783;BME280;10051;40.294;-3.754;2023-07-31T11:13:04;94239.91;;;34.18;26.31
19783;BME280;10051;40.294;-3.754;2023-07-31T11:15:30;94311.44;;;34.84;25.89
19783;BME280;10051;40.294;-3.754;2023-07-31T11:17:56;94285.59;;;34.73;24.71
19783;BME280;10051;40.294;-3.754;2023-07-31T11:20:24;94256.19;;;34.51;24.99
19783;BME280;10051;40.294;-3.754;2023-07-31T11:22:49;94152.22;;;34.03;25.60
19783;BME280;10051;40.294;-3.754;2023-07-31T11:25:18;94304.84;;;35.24;24.98
19783;BME280;10051;40.294;-3.754;2023-07-31T11:27:44;94282.22;;;35.24;24.11
19783;BME280;10051;40.294;-3.754;2023-07-31T11:30:10;94287.91;;;35.42;24.03
19783;BME280;10051;40.294;-3.754;2023-07-31T11:32:37;94290.03;;;35.51;23.92
19783;BME280;10051;40.294;-3.754;2023-07-31T11:35:02;94251.50;;;35.33;24.01
19783;BME280;10051;40.294;-3.754;2023-07-31T11:37:43;94270.41;;;35.01;23.88
19783;BME280;10051;40.294;-3.754;2023-07-31T11:40:10;94282.81;;;34.89;24.88
19783;BME280;10051;40.294;-3.754;2023-07-31T11:42:36;94275.09;;;35.01;24.64
19783;BME280;10051;40.294;-3.754;2023-07-31T11:45:05;94269.44;;;35.21;24.62
19783;BME280;10051;40.294;-3.754;2023-07-31T11:47:36;94265.94;;;35.46;23.06
19783;BME280;10051;40.294;-3.754;2023-07-31T11:50:06;94280.78;;;35.71;22.73
19783;BME280;10051;40.294;-3.754;2023-07-31T11:52:35;94237.50;;;35.56;21.54
19783;BME280;10051;40.294;-3.754;2023-07-31T11:55:01;94271.03;;;35.83;21.37
19783;BME280;10051;40.294;-3.754;2023-07-31T11:57:28;94253.91;;;35.56;21.77
19783;BME280;10051;40.294;-3.754;2023-07-31T11:59:55;94158.97;;;34.96;21.81
19783;BME280;10051;40.294;-3.754;2023-07-31T12:02:22;94231.50;;;35.36;21.56
19783;BME280;10051;40.294;-3.754;2023-07-31T12:04:48;94194.16;;;35.20;22.14
19783;BME280;10051;40.294;-3.754;2023-07-31T12:07:13;94153.41;;;34.99;21.70
19783;BME280;10051;40.294;-3.754;2023-07-31T12:09:51;94121.72;;;34.63;22.93
19783;BME280;10051;40.294;-3.754;2023-07-31T12:12:22;94166.38;;;34.95;22.03
19783;BME280;10051;40.294;-3.754;2023-07-31T12:14:49;94210.63;;;35.42;22.51
19783;BME280;10051;40.294;-3.754;2023-07-31T12:17:17;94199.22;;;35.56;22.26
19783;BME280;10051;40.294;-3.754;2023-07-31T12:19:44;94162.44;;;35.48;21.56
19783;BME280;10051;40.294;-3.754;2023-07-31T12:22:14;94108.13;;;35.24;21.49
19783;BME280;10051;40.294;-3.754;2023-07-31T12:24:41;94186.00;;;36.03;20.87
19783;BME280;10051;40.294;-3.754;2023-07-31T12:27:11;94197.47;;;36.11;21.28
19783;BME280;10051;40.294;-3.754;2023-07-31T12:29:38;94125.75;;;35.58;21.27
19783;BME280;10051;40.294;-3.754;2023-07-31T12:32:17;94189.19;;;36.01;20.97
19783;BME280;10051;40.294;-3.754;2023-07-31T12:34:43;94227.34;;;36.05;21.37
19783;BME280;10051;40.294;-3.754;2023-07-31T12:37:09;94190.50;;;35.97;20.57
19783;BME280;10051;40.294;-3.754;2023-07-31T12:39:34;94190.81;;;35.99;21.13
19783;BME280;10051;40.294;-3.754;2023-07-31T12:42:00;94221.97;;;36.37;20.35
19783;BME280;10051;40.294;-3.754;2023-07-31T12:44:26;94209.16;;;36.11;21.35
19783;BME280;10051;40.294;-3.754;2023-07-31T12:46:51;94131.53;;;35.61;20.53
19783;BME280;10051;40.294;-3.754;2023-07-31T12:49:17;94164.69;;;35.98;21.05
19783;BME280;10051;40.294;-3.754;2023-07-31T12:51:43;94174.09;;;35.97;21.33
19783;BME280;10051;40.294;-3.754;2023-07-31T12:54:08;94187.22;;;36.24;20.28
19783;BME280;10051;40.294;-3.754;2023-07-31T12:56:34;94161.00;;;36.14;20.57
19783;BME280;10051;40.294;-3.754;2023-07-31T12:58:59;94155.53;;;36.36;20.04
19783;BME280;10051;40.294;-3.754;2023-07-31T13:01:25;94144.53;;;36.49;20.08
19783;BME280;10051;40.294;-3.754;2023-07-31T13:03:50;94151.00;;;36.65;19.58
19783;BME280;10051;40.294;-3.754;2023-07-31T13:06:16;94173.31;;;36.95;19.68